DATI METEO

IERI
Time Temp. P.to rug.. Umid. Direzion Velocità d Wind gust Press. 1h Prec. 24h Prec.
00:08 20.9 16.7 77 332 1.9 4.4 1021.2 0.0000 0.0000
00:18 20.8 16.6 77 327 1.9 3.9 1021.1 0.0000 0.0000
00:28 20.7 16.5 77 325 1.4 3.1 1021.2 0.0000 0.0000
00:38 20.5 16.3 77 315 2.2 4.2 1021.3 0.0000 0.0000
00:48 20.4 16.2 77 318 2.2 3.9 1021.4 0.0000 0.0000
00:58 20.3 16.3 78 322 1.9 3.1 1021.5 0.0000 0.0000
01:09 20.1 16.1 78 322 2.2 3.9 1021.4 0.0000 0.0000
01:18 20 16.2 79 330 1.9 3.9 1021.3 0.0000 0.0000
01:28 19.9 16.2 79 326 1.9 3.3 1021.3 0.0000 0.0000
01:38 19.9 16.2 79 330 1.9 4.2 1021.3 0.0000 0.0000
01:49 19.8 16.1 79 338 1.4 2.8 1021.2 0.0000 0.0000
01:59 19.7 16 79 351 1.1 3.1 1021 0.0000 0.0000
02:08 19.5 16 80 328 1.4 3.1 1021.2 0.0000 0.0000
02:19 19.5 16 80 325 1.4 4.2 1021.2 0.0000 0.0000
02:29 19.4 15.9 80 320 1.9 3.9 1021.2 0.0000 0.0000
02:39 19.3 15.8 80 321 1.9 4.2 1021.2 0.0000 0.0000
02:49 19.2 15.9 81 331 1.9 4.2 1021.2 0.0000 0.0000
02:59 19.1 15.8 81 330 1.9 3.3 1021.3 0.0000 0.0000
03:09 19 15.5 80 336 1.4 4.2 1021.2 0.0000 0.0000
03:19 18.9 15.6 81 329 1.4 3.1 1021.3 0.0000 0.0000
03:30 18.9 15.6 81 339 1.4 3.9 1021.3 0.0000 0.0000
03:40 18.8 15.5 81 339 1.4 3.1 1021.4 0.0000 0.0000
03:50 18.7 15.6 82 334 1.4 3.9 1021.3 0.0000 0.0000
03:59 18.6 15.5 82 332 2.2 4.2 1021.3 0.0000 0.0000
04:10 18.5 15.4 82 337 1.9 4.4 1021.4 0.0000 0.0000
04:20 18.4 15.3 82 330 1.4 3.9 1021.5 0.0000 0.0000
04:30 18.4 15.3 82 326 1.9 3.1 1021.5 0.0000 0.0000
04:40 18.3 15.2 82 339 1.1 2.2 1021.5 0.0000 0.0000
04:50 18.2 15.3 83 326 1.4 3.3 1021.5 0.0000 0.0000
05:00 18.2 15.3 83 332 0.8 2.2 1021.5 0.0000 0.0000
05:10 18.2 15.3 83 330 1.1 2.8 1021.6 0.0000 0.0000
05:21 18.1 15.2 83 315 1.1 1.9 1021.7 0.0000 0.0000
05:31 18.1 15.2 83 315 1.4 3.1 1021.7 0.0000 0.0000
05:40 18.1 15.2 83 336 1.1 2.2 1021.7 0.0000 0.0000
05:51 18 15.1 83 358 0.8 1.9 1021.7 0.0000 0.0000
06:01 17.9 15.2 84 327 1.1 1.9 1021.8 0.0000 0.0000
06:11 17.9 15.2 84 319 0.8 1.9 1021.8 0.0000 0.0000
06:21 17.8 15.1 84 333 0.8 1.9 1021.9 0.0000 0.0000
06:31 17.8 15.1 84 342 0.8 1.4 1022 0.0000 0.0000
06:41 17.8 15.1 84 328 1.1 2.8 1022 0.0000 0.0000
06:51 17.9 15.3 85 315 1.4 3.9 1022 0.0000 0.0000
07:01 17.9 15.3 85 329 1.1 2.8 1022.1 0.0000 0.0000
07:12 18.1 15.5 85 332 1.1 2.8 1022.1 0.0000 0.0000
07:21 18.1 15.7 86 352 1.4 3.1 1022 0.0000 0.0000
07:31 18.1 15.9 87 345 1.4 2.8 1022.1 0.0000 0.0000
07:42 18.3 16.1 87 326 1.4 2.8 1021.9 0.0000 0.0000
07:52 18.4 16.2 87 329 1.4 3.3 1021.9 0.0000 0.0000
08:02 18.6 16.4 87 331 1.1 2.8 1022 0.0000 0.0000
08:12 19.4 17.4 88 313 1.9 4.2 1022.1 0.0000 0.0000
08:22 20.7 18.1 85 305 1.9 4.2 1022.1 0.0000 0.0000
08:32 21.1 17.7 81 329 1.1 3.1 1022.1 0.0000 0.0000
08:42 22.7 18.5 77 324 1.4 3.9 1022 0.0000 0.0000
08:53 24.3 18.9 72 329 1.4 3.1 1022.1 0.0000 0.0000
09:03 25.2 18.6 67 334 1.9 4.2 1022 0.0000 0.0000
09:12 24.5 18 67 334 1.9 3.3 1021.8 0.0000 0.0000
09:22 23.8 17.5 68 356 1.4 3.3 1021.8 0.0000 0.0000
09:26 23.7 17.4 68 331 1.4 3.1 1021.8 0.0000 0.0000
09:36 23.2 17 68 339 1.4 2.8 1021.9 0.0000 0.0000
09:46 22.9 16.7 68 325 1.9 3.9 1021.9 0.0000 0.0000
09:57 22.6 16.6 69 320 1.4 3.1 1021.8 0.0000 0.0000
10:07 22.7 17.2 71 315 1.4 3.1 1021.8 0.0000 0.0000
10:16 22.9 17.1 70 328 1.4 3.3 1021.9 0.0000 0.0000
10:27 23.5 16.8 66 329 1.4 2.8 1021.9 0.0000 0.0000
10:37 23.9 16.7 64 311 1.9 3.3 1021.9 0.0000 0.0000
10:47 24 16.5 63 313 1.9 3.9 1021.9 0.0000 0.0000
10:57 24 17 65 305 1.9 3.9 1021.9 0.0000 0.0000
11:07 24.2 17.2 65 300 2.2 4.2 1021.8 0.0000 0.0000
11:17 24.2 17.2 65 302 3.1 5.3 1021.8 0.0000 0.0000
11:27 24 17.3 66 307 2.8 4.4 1021.9 0.0000 0.0000
11:37 23.7 17 66 305 3.3 5.8 1021.9 0.0000 0.0000
11:48 23.5 16.8 66 300 3.1 5.3 1021.9 0.0000 0.0000
11:58 23.3 16.8 67 309 1.9 3.3 1021.9 0.0000 0.0000
12:07 23.1 16.6 67 303 1.9 3.3 1021.8 0.0000 0.0000
12:18 22.9 16.5 67 321 1.4 2.8 1021.8 0.0000 0.0000
12:28 22.8 16.4 67 316 1.4 3.9 1021.8 0.0000 0.0000
12:38 22.9 16.7 68 304 2.2 3.9 1021.8 0.0000 0.0000
12:48 23 17.2 70 299 1.9 3.3 1021.8 0.0000 0.0000
12:58 23.2 17.4 70 300 1.9 3.3 1021.8 0.0000 0.0000
13:08 23.3 17.5 70 307 2.2 4.2 1021.8 0.0000 0.0000
13:18 23.5 17.9 71 294 2.8 4.2 1021.7 0.0000 0.0000
13:29 23.5 17.9 71 310 1.9 5 1021.6 0.0000 0.0000
13:39 23.6 17.8 70 299 2.2 4.4 1021.7 0.0000 0.0000
13:48 23.7 17.7 69 308 2.2 4.2 1021.7 0.0000 0.0000
13:58 23.7 17.4 68 301 2.2 3.9 1021.7 0.0000 0.0000
14:09 23.8 17.1 66 303 2.8 5.8 1021.6 0.0000 0.0000
14:19 23.8 16.8 65 303 2.8 4.2 1021.5 0.0000 0.0000
14:29 23.8 16.8 65 296 3.1 5 1021.4 0.0000 0.0000
14:39 23.8 16.6 64 299 3.1 5 1021.3 0.0000 0.0000
14:49 23.8 16.6 64 303 2.8 4.2 1021.2 0.0000 0.0000
14:59 23.8 15.8 61 298 3.1 5.3 1021.1 0.0000 0.0000
15:09 23.9 15.4 59 302 3.3 5.3 1021.1 0.0000 0.0000
15:20 24 15.5 59 298 3.3 6.1 1021.1 0.0000 0.0000
15:29 24.1 15.3 58 297 2.8 5 1021.2 0.0000 0.0000
15:39 24.1 14.5 55 289 3.3 5 1021.2 0.0000 0.0000
15:50 24.2 15.4 58 289 3.3 6.4 1021 0.0000 0.0000
16:00 24.1 14.2 54 298 3.9 6.9 1020.9 0.0000 0.0000
16:10 24.1 14.5 55 300 3.9 7.2 1021 0.0000 0.0000
16:19 24 14.7 56 304 3.9 6.1 1020.8 0.0000 0.0000
16:30 24 14.1 54 311 3.9 6.9 1020.7 0.0000 0.0000
16:40 23.9 14 54 313 3.1 5.8 1020.6 0.0000 0.0000
16:50 23.9 14 54 305 3.3 6.1 1020.6 0.0000 0.0000
17:00 23.8 13.4 52 313 3.1 5.3 1020.5 0.0000 0.0000
17:10 23.8 12.5 49 298 3.9 7.5 1020.5 0.0000 0.0000
17:20 23.8 12.8 50 307 3.1 6.4 1020.4 0.0000 0.0000
17:30 23.7 13.3 52 304 3.9 6.4 1020.4 0.0000 0.0000
17:41 23.7 13 51 303 3.9 6.1 1020.4 0.0000 0.0000
17:51 23.7 13.3 52 304 3.9 6.9 1020.4 0.0000 0.0000
18:01 23.6 13.5 53 301 4.4 8.1 1020.3 0.0000 0.0000
18:11 23.6 14.6 57 300 3.3 6.1 1020.2 0.0000 0.0000
18:21 23.5 15 59 305 3.9 6.1 1020.2 0.0000 0.0000
18:31 23.4 15.2 60 302 3.3 5.8 1020.2 0.0000 0.0000
18:41 23.4 14.9 59 304 3.3 5.3 1020.2 0.0000 0.0000
18:52 23.3 14.6 58 307 3.3 6.4 1020.1 0.0000 0.0000
19:01 23.3 14.3 57 310 3.1 5.8 1020 0.0000 0.0000
19:11 23.2 14.2 57 309 2.8 5 1020 0.0000 0.0000
19:21 23.2 14.5 58 303 3.1 5.3 1020 0.0000 0.0000
19:32 23.1 14.4 58 310 2.8 5 1020 0.0000 0.0000
19:42 23 14.6 59 315 2.8 4.2 1020 0.0000 0.0000
19:51 22.9 14.7 60 315 1.9 4.2 1020 0.0000 0.0000
20:02 22.8 14.9 61 309 2.2 3.9 1020 0.0000 0.0000
20:12 22.7 15.1 62 315 1.9 3.3 1020 0.0000 0.0000
20:22 22.5 14.9 62 315 1.9 3.9 1020.1 0.0000 0.0000
20:32 22.4 15 63 312 2.2 3.9 1020.1 0.0000 0.0000
20:43 22.2 15.1 64 315 1.9 4.2 1020.2 0.0000 0.0000
20:52 22.1 15 64 320 1.9 3.9 1020.1 0.0000 0.0000
21:02 21.9 15 65 320 1.4 3.3 1020.2 0.0000 0.0000
21:13 21.7 14.8 65 316 1.9 4.2 1020.3 0.0000 0.0000
21:23 21.5 14.9 66 317 1.9 3.1 1020.3 0.0000 0.0000
21:33 21.3 14.9 67 315 1.9 4.2 1020.4 0.0000 0.0000
21:42 21.2 15.1 68 323 1.4 3.3 1020.4 0.0000 0.0000
21:53 21.1 14.7 67 315 1.4 3.1 1020.5 0.0000 0.0000
22:03 20.9 14.8 68 317 1.4 3.1 1020.6 0.0000 0.0000
22:13 20.7 14.6 68 320 1.4 3.1 1020.7 0.0000 0.0000
22:23 20.6 14.3 67 318 1.4 3.1 1020.8 0.0000 0.0000
22:33 20.5 14.2 67 328 1.4 3.3 1020.8 0.0000 0.0000
22:43 20.3 14 67 322 1.4 3.1 1020.9 0.0000 0.0000
22:53 20.2 14.1 68 331 1.4 2.8 1020.8 0.0000 0.0000
23:04 20 13.9 68 330 1.4 2.8 1020.8 0.0000 0.0000
23:14 20 13.9 68 322 1.4 3.9 1020.8 0.0000 0.0000
23:23 19.8 14 69 322 1.9 3.9 1020.8 0.0000 0.0000
23:34 19.8 14 69 329 1.4 3.3 1020.7 0.0000 0.0000
23:44 19.7 14.1 70 344 1.1 2.2 1020.7 0.0000 0.0000
23:54 19.5 14.1 71 337 1.4 3.3 1020.6 0.0000

STATISTICHE GIORNALIERE

2020-08-09
TEMPERATURA
MEDIA
21.5
MASSIMA
25.2
09:03
MINIMA
17.8
06:21
PRESSIONE
MEDIA
1021.2
MASSIMA
1022.1
07:01
MINIMA
1020.0
19:01
PUNTO DI RUGIADA
MEDIA
15.7
MASSIMA
18.9
08:53
MINIMA
12.5
17:10
UMIDITÀ
MEDIA
70
MASSIMA
88
08:12
MINIMA
49
17:10
VELOCITÀ DEL VENTO
MEDIA
2.1
MASSIMA
4.4
18:01
WIND GUST
MEDIA
4.0
MASSIMA
8.1
18:01
DIREZIONE DEL VENTO
PREVALENTE
NO
90.2%
N
8.4
NE
0.0
E
0.0
SE
0.0
S
0.0
SO
0.0
O
1.4
NO
90.2
PRECIPITAZIONI
ORA DI PIOGGIA
0.0
GIORNO DI PIOGGIA
0.0
TEMPERATURA (°C)
MINIMA
17.8
MASSIMA
25.2
MEDIA
21.5
PRESSIONE (hpa)
MINIMA
1020.0
MASSIMA
1022.1
MEDIA
1021.2
DEVICE